Airfield :
LOGIN :

Register | Disclaimer

   EN    FR    IT 

 










Legend :    VFR   Marginal VFR   IFR   Intensive IFR   Very Intensive IFR
Visi :
Ceiling :
>= 8 km
>= 3000ft
5 to 8 km
1000 to 3000 ft
1500m to 5 km
500 to 1000 ft
800 to 1500m
200 to 500 ft
< 800m
< 200 ft
Symbols :   Thunderstorms  Fog  Heavy snow  Heavy precipitations  Wind > 20 kt
SIGMETs :     Misc.  Thunderstorms  Icing  Turbulence  Mountain Waves  Volcanic Ashes






- Airport Elevation : 1455 ft


ETIH - Hohenfels Army Air Field

CURRENT METAR :
  • 232031Z AUTO 27003KT 0600 FG OVC005 14/14 A2981 RMK AO2 SLP092 RVRNO $

EXPIRED METARs :
  • 232011Z AUTO 27003KT 0600 FG BKN005 BKN100 15/14 A2980 RMK AO2 VIS 0600V2400 CIG 003V005 SLP086 RVRNO $
  • 232006Z AUTO 27003KT 1600 BR BKN003 BKN100 15/14 A2980 RMK AO2 VIS 1600V3600 SLP086 RVRNO $
  • 231956Z AUTO 00000KT 3600 BR BKN003 OVC100 15/14 A2980 RMK AO2 VIS 3600V4400 SLP086 T01470139 $
  • 231946Z AUTO 27003KT 3200 BR BKN003 BKN100 15/14 A2980 RMK AO2 VIS 2000V3200 SLP086 $
  • 231921Z AUTO 00000KT 1800 BR BKN100 15/14 A2980 RMK AO2 VIS 0800V1800 SLP086 $
  • 231856Z AUTO 00000KT 1000 BR BKN100 16/15 A2980 RMK AO2 SLP085 T01550147 RVRNO $
  • 231821Z AUTO 00000KT 1400 BR SCT002 BKN100 16/15 A2979 RMK AO2 SLP083 RVRNO $
  • 231816Z AUTO 00000KT 1800 BR SCT002 OVC100 16/15 A2979 RMK AO2 SLP083 $
  • 231806Z AUTO 00000KT 2400 BR BKN003 OVC100 16/15 A2979 RMK AO2 VIS 2400V4000 SLP083 $
  • 231801Z AUTO 00000KT 4000 BR BKN004 OVC100 16/15 A2979 RMK AO2 VIS 1600V4000 SLP083 $
  • 231751Z AUTO 00000KT 1400 BR BKN004 BKN100 16/15 A2979 RMK AO2 VIS 1200V4400 SLP083 RVRNO $

Expired Forecast.



MET'MAP, your aeronautical weather chart ! - Copyright ORBIFLY December 2007 - Disclaimer

ORBIFLY MET'MAP TEAM :

Programming & Development : Alexandra Zaïnal
Concept & original design : Baudouin d'Aumeries
Assistance for programming : Marc-Olivier Méhu
Technical & hardware support : Manuel Goepfert

Contact : metmap@orbifly.com




SOURCES & CREDITS :

   NOAA